Time;durP1;ratioP1;P1;durP2;ratioP2;P2;SDS_P1;SDS_P2;PMS_P1;PMS_P2;Temp;Humidity;BMP_temperature;BMP_pressure;BME280_temperature;BME280_humidity;BME280_pressure;Samples;Min_cycle;Max_cycle;Signal;HPM_P1;HPM_P2
2023/09/27 00:01:47;;;;;;;16.08;12.57;;;13.80;99.90;;;;;;5114445;28;20042;-72
2023/09/27 00:04:13;;;;;;;16.27;12.50;;;13.70;99.90;;;;;;5113383;28;20027;-72
2023/09/27 00:06:38;;;;;;;13.02;11.32;;;13.70;99.90;;;;;;5114111;28;20028;-72
2023/09/27 00:09:04;;;;;;;13.63;11.30;;;13.70;99.90;;;;;;5113770;28;20101;-72
2023/09/27 00:11:30;;;;;;;12.70;10.77;;;13.60;99.90;;;;;;5114525;28;20024;-72
2023/09/27 00:13:55;;;;;;;15.65;12.73;;;13.60;99.90;;;;;;5114293;28;20119;-72
2023/09/27 00:16:21;;;;;;;15.45;13.05;;;13.60;99.90;;;;;;5113684;28;20031;-72
2023/09/27 00:18:46;;;;;;;14.55;13.02;;;13.60;99.90;;;;;;5113968;28;20074;-73
2023/09/27 00:21:12;;;;;;;18.08;14.15;;;13.60;99.90;;;;;;5113848;28;20465;-72
2023/09/27 00:23:38;;;;;;;16.48;13.13;;;13.60;99.90;;;;;;5114522;28;20020;-72
2023/09/27 00:26:03;;;;;;;17.17;13.88;;;13.60;99.90;;;;;;5114158;28;20035;-72
2023/09/27 00:28:29;;;;;;;16.50;14.00;;;13.60;99.90;;;;;;5114158;28;20026;-72
2023/09/27 00:30:55;;;;;;;18.52;15.15;;;13.60;99.90;;;;;;5113834;28;20111;-72
2023/09/27 00:33:23;;;;;;;17.92;14.25;;;13.70;99.90;;;;;;5114122;28;20031;-72
2023/09/27 00:35:49;;;;;;;20.88;16.50;;;13.70;99.90;;;;;;5114008;28;20019;-72
2023/09/27 00:38:15;;;;;;;21.17;16.02;;;13.70;99.90;;;;;;5114338;28;20027;-72
2023/09/27 00:40:45;;;;;;;21.80;18.08;;;13.80;99.90;;;;;;5117013;28;20043;-72
2023/09/27 00:43:24;;;;;;;22.23;18.10;;;13.80;99.90;;;;;;5117801;28;20458;-72
2023/09/27 00:45:51;;;;;;;19.05;16.30;;;13.80;99.90;;;;;;5117643;28;20346;-72
2023/09/27 00:48:17;;;;;;;19.40;14.93;;;13.80;99.90;;;;;;5117696;28;20418;-73
2023/09/27 00:50:42;;;;;;;23.25;17.17;;;13.70;99.90;;;;;;5117157;28;20027;-72
2023/09/27 00:53:08;;;;;;;19.02;14.85;;;13.60;99.90;;;;;;5117388;28;20106;-72
2023/09/27 00:55:34;;;;;;;17.73;14.00;;;13.60;99.90;;;;;;5117988;28;20028;-72
2023/09/27 00:57:59;;;;;;;21.20;17.50;;;13.60;99.90;;;;;;5117889;28;20028;-72
2023/09/27 01:00:25;;;;;;;22.25;16.42;;;13.60;99.90;;;;;;5117140;28;20028;-72
2023/09/27 01:02:51;;;;;;;24.80;17.80;;;13.60;99.90;;;;;;5117743;28;20050;-72
2023/09/27 01:05:18;;;;;;;23.25;17.27;;;13.60;99.90;;;;;;5117301;28;20020;-73
2023/09/27 01:07:44;;;;;;;21.98;18.17;;;13.60;99.90;;;;;;5117002;28;20393;-73
2023/09/27 01:10:09;;;;;;;20.85;16.70;;;13.60;99.90;;;;;;5117203;28;20034;-72
2023/09/27 01:12:36;;;;;;;19.73;16.80;;;13.60;99.90;;;;;;5117269;28;20020;-73
2023/09/27 01:15:02;;;;;;;21.08;16.20;;;13.50;99.90;;;;;;5117201;27;20500;-72
2023/09/27 01:17:28;;;;;;;21.95;17.50;;;13.50;99.90;;;;;;5116818;28;20024;-72
2023/09/27 01:19:53;;;;;;;19.27;15.23;;;13.50;99.90;;;;;;5117352;28;20114;-72
2023/09/27 01:22:19;;;;;;;20.10;14.98;;;13.40;99.90;;;;;;5116712;28;20026;-73
2023/09/27 01:24:45;;;;;;;18.92;15.38;;;13.40;99.90;;;;;;5117033;28;20023;-74
2023/09/27 01:27:13;;;;;;;19.42;15.05;;;13.30;99.90;;;;;;5117082;28;20015;-74
2023/09/27 01:29:39;;;;;;;21.92;15.68;;;13.30;99.90;;;;;;5117238;28;20055;-74
2023/09/27 01:32:04;;;;;;;20.90;15.18;;;13.30;99.90;;;;;;5117095;28;20500;-74
2023/09/27 01:34:30;;;;;;;19.27;14.40;;;13.30;99.90;;;;;;5116449;28;20390;-74
2023/09/27 01:36:55;;;;;;;20.13;15.25;;;13.30;99.90;;;;;;5117055;28;20493;-74
2023/09/27 01:39:21;;;;;;;17.88;14.77;;;13.30;99.90;;;;;;5116416;28;20051;-74
2023/09/27 01:41:47;;;;;;;16.92;14.52;;;13.20;99.90;;;;;;5116728;28;20036;-74
2023/09/27 01:44:12;;;;;;;18.75;14.85;;;13.10;99.90;;;;;;5116578;28;20019;-74
2023/09/27 01:46:38;;;;;;;17.45;14.90;;;13.10;99.90;;;;;;5115959;28;20219;-74
2023/09/27 01:49:04;;;;;;;23.63;17.48;;;13.10;99.90;;;;;;5116657;27;20035;-74
2023/09/27 01:51:29;;;;;;;17.83;14.25;;;13.00;99.90;;;;;;5116604;28;20388;-74
2023/09/27 01:53:55;;;;;;;18.85;14.88;;;13.00;99.90;;;;;;5116717;28;20051;-74
2023/09/27 01:56:20;;;;;;;19.65;15.43;;;12.90;99.90;;;;;;5116001;28;20362;-75
2023/09/27 01:58:46;;;;;;;21.67;16.42;;;12.90;99.90;;;;;;5116432;28;20557;-74
2023/09/27 02:01:11;;;;;;;16.40;13.30;;;12.90;99.90;;;;;;5116391;28;20118;-74
2023/09/27 02:03:37;;;;;;;16.40;13.50;;;12.80;99.90;;;;;;5116169;28;20023;-74
2023/09/27 02:06:02;;;;;;;14.88;12.63;;;12.80;99.90;;;;;;5115852;28;20018;-74
2023/09/27 02:08:28;;;;;;;15.95;13.63;;;12.80;99.90;;;;;;5116287;28;20034;-73
2023/09/27 02:10:53;;;;;;;18.70;15.27;;;12.70;99.90;;;;;;5116198;28;20032;-74
2023/09/27 02:13:19;;;;;;;24.08;18.60;;;12.70;99.90;;;;;;5115715;28;20024;-74
2023/09/27 02:15:45;;;;;;;21.25;16.65;;;12.70;99.90;;;;;;5115658;28;20354;-74
2023/09/27 02:18:11;;;;;;;23.95;17.30;;;12.70;99.90;;;;;;5116308;28;20038;-74
2023/09/27 02:20:37;;;;;;;21.65;15.43;;;12.60;99.90;;;;;;5116109;28;20492;-74
2023/09/27 02:23:03;;;;;;;23.27;15.70;;;12.60;99.90;;;;;;5114919;28;20048;-74
2023/09/27 02:25:29;;;;;;;18.00;14.30;;;12.50;99.90;;;;;;5115066;28;20024;-74
2023/09/27 02:27:54;;;;;;;18.00;13.70;;;12.50;99.90;;;;;;5115816;28;20027;-74
2023/09/27 02:30:20;;;;;;;18.63;15.10;;;12.40;99.90;;;;;;5115005;28;20028;-74
2023/09/27 02:32:45;;;;;;;22.10;15.35;;;12.40;99.90;;;;;;5115629;28;20115;-74
2023/09/27 02:35:13;;;;;;;18.10;14.55;;;12.40;99.90;;;;;;5115706;28;20032;-74
2023/09/27 02:37:40;;;;;;;20.23;14.75;;;12.40;99.90;;;;;;5115521;28;20032;-75
2023/09/27 02:40:11;;;;;;;19.70;14.98;;;12.30;99.90;;;;;;5114451;28;20465;-74
2023/09/27 02:42:39;;;;;;;19.73;15.25;;;12.30;99.90;;;;;;5115401;28;20412;-75
2023/09/27 02:45:07;;;;;;;17.85;15.07;;;12.30;99.90;;;;;;5114506;28;20024;-74
2023/09/27 02:47:32;;;;;;;17.92;14.38;;;12.30;99.90;;;;;;5115383;28;20106;-74
2023/09/27 02:49:58;;;;;;;17.08;14.43;;;12.20;99.90;;;;;;5115713;28;20122;-74
2023/09/27 02:52:23;;;;;;;20.70;16.20;;;12.20;99.90;;;;;;5114686;28;20034;-73
2023/09/27 02:54:49;;;;;;;23.75;17.30;;;12.20;99.90;;;;;;5115384;28;20051;-74
2023/09/27 02:57:14;;;;;;;22.40;18.10;;;12.20;99.90;;;;;;5115244;28;20465;-74
2023/09/27 02:59:40;;;;;;;20.50;16.02;;;12.20;99.90;;;;;;5114526;28;20023;-74
2023/09/27 03:02:06;;;;;;;22.63;16.02;;;12.20;99.90;;;;;;5114413;28;20450;-74
2023/09/27 03:04:31;;;;;;;19.65;14.45;;;12.10;99.90;;;;;;5115505;28;20035;-74
2023/09/27 03:06:59;;;;;;;22.25;15.07;;;12.10;99.90;;;;;;5114665;28;20027;-74
2023/09/27 03:09:24;;;;;;;22.92;15.20;;;12.10;99.90;;;;;;5115409;28;20020;-74
2023/09/27 03:11:50;;;;;;;19.17;14.50;;;12.00;99.90;;;;;;5114479;28;20028;-74
2023/09/27 03:14:16;;;;;;;21.15;15.43;;;12.00;99.90;;;;;;5114806;28;20019;-74
2023/09/27 03:16:42;;;;;;;19.63;14.35;;;12.00;99.90;;;;;;5114882;28;20554;-74
2023/09/27 03:19:08;;;;;;;21.20;15.60;;;12.00;99.90;;;;;;5114910;28;20019;-74
2023/09/27 03:21:34;;;;;;;19.38;15.38;;;11.90;99.90;;;;;;5114482;28;20076;-74
2023/09/27 03:23:59;;;;;;;26.98;17.10;;;11.90;99.90;;;;;;5114755;28;20369;-74
2023/09/27 03:26:25;;;;;;;22.42;16.98;;;11.90;99.90;;;;;;5114773;28;20024;-74
2023/09/27 03:28:51;;;;;;;23.63;16.60;;;11.90;99.90;;;;;;5114437;28;20094;-74
2023/09/27 03:31:17;;;;;;;26.95;19.05;;;11.80;99.90;;;;;;5114656;28;20027;-74
2023/09/27 03:33:43;;;;;;;24.33;17.77;;;11.80;99.90;;;;;;5114825;28;20465;-73
2023/09/27 03:36:09;;;;;;;31.50;19.55;;;11.90;99.90;;;;;;5114663;28;20034;-73
2023/09/27 03:38:36;;;;;;;25.13;18.45;;;11.90;99.90;;;;;;5114007;28;20031;-73
2023/09/27 03:41:02;;;;;;;25.13;18.35;;;11.90;99.90;;;;;;5114563;28;20386;-73
2023/09/27 03:43:27;;;;;;;25.75;18.45;;;12.00;99.90;;;;;;5114413;28;20016;-73
2023/09/27 03:45:53;;;;;;;23.88;18.38;;;12.00;99.90;;;;;;5114792;28;20034;-73
2023/09/27 03:48:19;;;;;;;23.70;17.52;;;12.00;99.90;;;;;;5114760;28;20032;-73
2023/09/27 03:50:45;;;;;;;24.85;18.25;;;12.00;99.90;;;;;;5114054;28;20023;-73
2023/09/27 03:53:10;;;;;;;21.40;16.67;;;11.90;99.90;;;;;;5114404;28;20097;-73
2023/09/27 03:55:36;;;;;;;24.85;17.17;;;11.90;99.90;;;;;;5114646;28;20122;-73
2023/09/27 03:58:02;;;;;;;20.90;16.05;;;11.90;99.90;;;;;;5114759;28;20027;-74
2023/09/27 04:00:28;;;;;;;21.42;16.55;;;11.80;99.90;;;;;;5113910;28;20027;-73
2023/09/27 04:02:54;;;;;;;21.27;16.38;;;11.80;99.90;;;;;;5113920;28;20469;-73
2023/09/27 04:05:23;;;;;;;22.55;17.42;;;11.80;99.90;;;;;;5113614;28;20055;-73
2023/09/27 04:07:48;;;;;;;25.80;17.85;;;11.80;99.90;;;;;;5114158;28;20012;-73
2023/09/27 04:10:17;;;;;;;31.30;21.92;;;11.90;99.90;;;;;;5114255;28;20039;-73
2023/09/27 04:12:43;;;;;;;24.00;18.02;;;11.80;99.90;;;;;;5115216;28;20024;-73
2023/09/27 04:15:09;;;;;;;25.25;18.77;;;11.80;99.90;;;;;;5118499;28;20027;-73
2023/09/27 04:17:35;;;;;;;25.17;18.58;;;11.80;99.90;;;;;;5117960;28;20031;-73
2023/09/27 04:20:08;;;;;;;26.35;19.60;;;11.80;99.90;;;;;;5118459;28;20020;-73
2023/09/27 04:22:34;;;;;;;23.73;18.30;;;11.70;99.90;;;;;;5118628;27;20511;-73
2023/09/27 04:24:59;;;;;;;22.00;16.60;;;11.70;99.90;;;;;;5117584;28;20028;-74
2023/09/27 04:27:26;;;;;;;21.52;17.08;;;11.70;99.90;;;;;;5118201;28;20057;-73
2023/09/27 04:29:52;;;;;;;24.50;17.52;;;11.70;99.90;;;;;;5118073;28;20036;-73
2023/09/27 04:32:18;;;;;;;23.55;18.63;;;11.60;99.90;;;;;;5117650;28;20027;-73
2023/09/27 04:34:43;;;;;;;25.23;18.88;;;11.60;99.90;;;;;;5117754;28;20055;-73
2023/09/27 04:37:09;;;;;;;27.92;20.02;;;11.60;99.90;;;;;;5118322;28;20038;-73
2023/09/27 04:39:34;;;;;;;29.25;20.10;;;11.60;99.90;;;;;;5117361;28;20079;-73
2023/09/27 04:42:00;;;;;;;26.13;19.00;;;11.60;99.90;;;;;;5117589;28;20433;-73
2023/09/27 04:44:25;;;;;;;24.58;19.08;;;11.60;99.90;;;;;;5117595;28;20024;-73
2023/09/27 04:46:52;;;;;;;23.20;18.30;;;11.60;99.90;;;;;;5117801;28;20343;-73
2023/09/27 04:49:17;;;;;;;24.20;18.33;;;11.70;99.90;;;;;;5117825;27;20020;-73
2023/09/27 04:51:43;;;;;;;26.25;19.25;;;11.60;99.90;;;;;;5117670;28;20035;-73
2023/09/27 04:54:08;;;;;;;22.73;17.67;;;11.60;99.90;;;;;;5117241;28;20016;-73
2023/09/27 04:56:34;;;;;;;25.33;20.02;;;11.60;99.90;;;;;;5117523;28;20054;-73
2023/09/27 04:59:03;;;;;;;26.90;19.38;;;11.60;99.90;;;;;;5117823;28;20027;-74
2023/09/27 05:01:29;;;;;;;27.67;20.23;;;11.60;99.90;;;;;;5117318;27;20161;-74
2023/09/27 05:03:54;;;;;;;28.35;20.92;;;11.60;99.90;;;;;;5117360;28;20470;-73
2023/09/27 05:06:20;;;;;;;30.25;21.40;;;11.60;99.90;;;;;;5117662;28;20106;-73
2023/09/27 05:08:45;;;;;;;25.95;19.58;;;11.50;99.90;;;;;;5117251;28;20054;-73
2023/09/27 05:11:11;;;;;;;24.80;18.42;;;11.50;99.90;;;;;;5117195;28;20374;-73
2023/09/27 05:13:37;;;;;;;26.38;19.42;;;11.50;99.90;;;;;;5117595;28;20519;-73
2023/09/27 05:16:03;;;;;;;22.85;17.98;;;11.50;99.90;;;;;;5116951;28;20127;-73
2023/09/27 05:18:28;;;;;;;24.67;18.70;;;11.50;99.90;;;;;;5117387;28;20024;-73
2023/09/27 05:20:54;;;;;;;21.30;17.75;;;11.50;99.90;;;;;;5116739;28;20042;-73
2023/09/27 05:23:19;;;;;;;23.42;17.40;;;11.50;99.90;;;;;;5117396;28;20476;-73
2023/09/27 05:25:45;;;;;;;23.90;17.55;;;11.50;99.90;;;;;;5116104;28;20030;-73
2023/09/27 05:28:10;;;;;;;23.08;18.15;;;11.50;99.90;;;;;;5116952;28;20024;-73
2023/09/27 05:30:36;;;;;;;25.33;18.90;;;11.60;99.90;;;;;;5116986;28;20027;-73
2023/09/27 05:33:04;;;;;;;28.55;20.38;;;11.60;99.90;;;;;;5116649;28;20043;-73
2023/09/27 05:35:30;;;;;;;31.55;22.33;;;11.80;99.90;;;;;;5117110;28;20389;-73
2023/09/27 05:37:57;;;;;;;30.55;23.40;;;11.80;99.90;;;;;;5115876;28;20028;-73
2023/09/27 05:40:23;;;;;;;28.60;21.83;;;11.90;99.90;;;;;;5115778;28;20524;-73
2023/09/27 05:42:48;;;;;;;31.52;22.40;;;11.90;99.90;;;;;;5117087;28;20038;-73
2023/09/27 05:45:14;;;;;;;33.50;22.17;;;11.90;99.90;;;;;;5116105;28;20045;-74
2023/09/27 05:47:40;;;;;;;29.75;21.20;;;11.90;99.90;;;;;;5116477;28;20020;-73
2023/09/27 05:50:08;;;;;;;29.33;22.10;;;12.00;99.90;;;;;;5116549;28;20076;-73
2023/09/27 05:52:35;;;;;;;27.20;19.83;;;12.00;99.90;;;;;;5116876;28;20061;-73
2023/09/27 05:55:01;;;;;;;25.40;19.75;;;12.10;99.90;;;;;;5116430;28;20028;-73
2023/09/27 05:57:27;;;;;;;31.35;23.30;;;12.30;99.90;;;;;;5116690;28;20465;-72
2023/09/27 05:59:53;;;;;;;35.90;24.52;;;12.40;99.90;;;;;;5115890;28;20081;-73
2023/09/27 06:02:20;;;;;;;36.50;24.13;;;12.60;99.90;;;;;;5114193;28;20020;-73
2023/09/27 06:04:47;;;;;;;37.40;26.48;;;13.00;99.90;;;;;;5110728;28;20382;-73
2023/09/27 06:07:14;;;;;;;27.73;21.92;;;13.20;99.90;;;;;;5113778;28;20020;-74
2023/09/27 06:09:41;;;;;;;32.30;23.90;;;13.30;99.90;;;;;;5123844;27;20102;-73
2023/09/27 06:12:07;;;;;;;28.45;22.60;;;13.40;99.90;;;;;;5125710;27;20027;-73
2023/09/27 06:14:34;;;;;;;30.42;23.52;;;13.50;99.90;;;;;;5114535;28;20401;-73
2023/09/27 06:17:01;;;;;;;33.67;25.42;;;13.80;99.90;;;;;;5114107;28;20027;-73
2023/09/27 06:19:26;;;;;;;29.75;22.23;;;13.90;99.90;;;;;;5114081;28;20038;-72
2023/09/27 06:21:52;;;;;;;30.80;22.38;;;14.20;99.90;;;;;;5112652;28;20043;-72
2023/09/27 06:24:17;;;;;;;24.08;19.23;;;15.20;99.90;;;;;;5112359;28;20072;-73
2023/09/27 06:26:43;;;;;;;16.75;13.98;;;16.60;99.90;;;;;;5115166;28;20128;-73
2023/09/27 06:29:09;;;;;;;17.60;11.95;;;17.60;99.90;;;;;;5112034;28;20023;-73
2023/09/27 06:31:35;;;;;;;13.80;9.35;;;18.20;99.90;;;;;;5112776;28;20028;-74
2023/09/27 06:34:01;;;;;;;13.63;9.32;;;19.30;99.90;;;;;;5106269;28;20027;-73
2023/09/27 06:36:29;;;;;;;10.38;8.73;;;19.60;99.90;;;;;;5114045;28;20036;-73
2023/09/27 06:38:55;;;;;;;13.50;8.38;;;19.30;24.40;;;;;;5112263;28;20047;-73
2023/09/27 06:41:21;;;;;;;12.10;8.45;;;19.60;10.10;;;;;;5115251;27;20058;-73
2023/09/27 06:43:47;;;;;;;12.73;8.15;;;20.60;1.00;;;;;;5115087;28;20458;-73
2023/09/27 06:46:15;;;;;;;10.93;7.95;;;21.40;99.90;;;;;;5112139;28;20031;-74
2023/09/27 06:48:41;;;;;;;9.60;8.30;;;21.90;99.90;;;;;;5114326;28;20031;-74
2023/09/27 06:51:07;;;;;;;12.27;8.00;;;21.90;99.90;;;;;;5113597;28;20122;-74
2023/09/27 06:53:33;;;;;;;12.23;7.88;;;22.00;99.90;;;;;;5112832;28;20050;-73
2023/09/27 06:55:59;;;;;;;10.10;7.05;;;22.60;99.90;;;;;;5114374;28;20034;-74
2023/09/27 06:58:25;;;;;;;8.98;7.70;;;23.20;1.00;;;;;;5113527;28;20028;-74
2023/09/27 07:00:52;;;;;;;7.80;7.05;;;23.50;99.90;;;;;;5111840;28;20024;-74
2023/09/27 07:03:19;;;;;;;11.75;7.22;;;23.70;1.00;;;;;;5113606;28;20395;-74
2023/09/27 07:05:46;;;;;;;9.70;7.38;;;23.70;1.00;;;;;;5112812;28;20612;-74
2023/09/27 07:08:12;;;;;;;9.20;7.60;;;24.10;99.90;;;;;;5113724;28;20520;-74
2023/09/27 07:10:38;;;;;;;8.32;7.53;;;24.20;99.90;;;;;;5112865;28;20189;-75
2023/09/27 07:13:04;;;;;;;11.52;8.02;;;24.10;99.90;;;;;;5114468;28;20110;-75
2023/09/27 07:15:31;;;;;;;12.13;8.93;;;23.50;99.90;;;;;;5113889;28;20055;-74
2023/09/27 07:17:57;;;;;;;13.63;11.40;;;24.00;99.90;;;;;;5113652;28;20110;-74
2023/09/27 07:20:24;;;;;;;28.52;25.52;;;25.10;99.90;;;;;;5112491;28;20193;-76
2023/09/27 07:22:51;;;;;;;24.52;21.08;;;25.50;99.90;;;;;;5114650;28;20110;-74
2023/09/27 07:25:18;;;;;;;15.73;12.15;;;25.40;1.00;;;;;;5110550;28;20024;-74
2023/09/27 07:27:46;;;;;;;10.35;8.80;;;24.80;99.90;;;;;;5115021;28;20048;-74
2023/09/27 07:30:12;;;;;;;10.98;9.75;;;24.90;1.00;;;;;;5111809;28;20041;-74
2023/09/27 07:32:40;;;;;;;11.48;9.32;;;24.40;99.90;;;;;;5112975;28;20062;-74
2023/09/27 07:35:10;;;;;;;8.52;7.72;;;23.80;1.00;;;;;;5114159;28;20065;-74
2023/09/27 07:37:37;;;;;;;7.97;7.20;;;24.40;99.90;;;;;;5113111;28;20027;-74
2023/09/27 07:40:08;;;;;;;13.35;8.95;;;24.30;99.90;;;;;;5108627;28;20043;-74
2023/09/27 07:42:34;;;;;;;8.48;7.60;;;24.20;1.00;;;;;;5111471;28;20038;-74
2023/09/27 07:45:00;;;;;;;9.55;7.95;;;24.20;1.00;;;;;;5113049;28;20385;-74
2023/09/27 07:47:25;;;;;;;9.07;8.13;;;24.10;1.00;;;;;;5109956;28;20028;-74
2023/09/27 07:49:51;;;;;;;10.10;8.38;;;23.70;19.80;;;;;;5110598;28;20054;-74
2023/09/27 07:52:16;;;;;;;9.73;7.40;;;23.20;99.90;;;;;;5112019;28;20454;-74
2023/09/27 07:54:42;;;;;;;12.02;7.88;;;22.40;99.90;;;;;;5112802;28;20035;-74
2023/09/27 07:57:08;;;;;;;10.43;7.68;;;22.10;1.00;;;;;;5111399;28;20110;-74
2023/09/27 07:59:33;;;;;;;13.75;9.20;;;22.10;99.90;;;;;;5111577;28;20409;-74
2023/09/27 08:01:59;;;;;;;9.60;7.90;;;22.10;1.00;;;;;;5105816;28;20047;-74
2023/09/27 08:04:24;;;;;;;10.05;7.63;;;22.00;1.00;;;;;;5103637;28;20027;-74
2023/09/27 08:06:50;;;;;;;10.27;8.27;;;22.00;1.00;;;;;;5104564;28;20036;-73
2023/09/27 08:09:15;;;;;;;10.00;7.85;;;22.20;99.90;;;;;;5092388;28;20028;-73
2023/09/27 08:11:43;;;;;;;11.50;8.10;;;22.00;1.00;;;;;;5104611;28;20089;-73
2023/09/27 08:14:11;;;;;;;9.63;7.97;;;21.90;99.90;;;;;;5100684;28;20481;-74
2023/09/27 08:16:37;;;;;;;9.95;8.52;;;21.70;1.00;;;;;;5102494;28;20448;-73
2023/09/27 08:19:03;;;;;;;12.27;9.07;;;21.50;99.90;;;;;;5093868;28;20032;-74
2023/09/27 08:21:29;;;;;;;15.82;8.85;;;21.10;99.90;;;;;;5105077;28;20392;-74
2023/09/27 08:23:55;;;;;;;11.27;8.50;;;20.80;99.90;;;;;;5112209;28;20107;-74
2023/09/27 08:26:20;;;;;;;11.25;8.52;;;20.50;99.90;;;;;;5111875;28;20028;-73
2023/09/27 08:28:46;;;;;;;12.23;8.52;;;20.30;99.90;;;;;;5109727;28;20051;-73
2023/09/27 08:31:12;;;;;;;11.68;9.10;;;20.20;1.00;;;;;;5113643;28;20039;-73
2023/09/27 08:33:39;;;;;;;11.88;8.45;;;20.30;1.00;;;;;;5111279;28;20055;-74
2023/09/27 08:36:04;;;;;;;12.27;8.65;;;20.80;1.00;;;;;;5110427;28;20107;-73
2023/09/27 08:38:30;;;;;;;18.52;8.93;;;21.50;99.90;;;;;;5111586;28;20190;-73
2023/09/27 08:40:56;;;;;;;12.95;7.68;;;22.50;99.90;;;;;;5110716;28;20097;-74
2023/09/27 08:43:22;;;;;;;9.98;8.15;;;22.90;1.00;;;;;;5129403;28;20071;-74
2023/09/27 08:45:51;;;;;;;8.95;8.07;;;23.50;1.00;;;;;;5129200;28;20474;-74
2023/09/27 08:48:22;;;;;;;10.07;7.75;;;24.30;99.90;;;;;;5113655;28;20037;-74
2023/09/27 08:50:49;;;;;;;11.65;7.78;;;24.20;1.00;;;;;;5113274;28;20027;-74
2023/09/27 08:53:15;;;;;;;10.80;7.68;;;23.70;1.00;;;;;;5103656;28;20090;-74
2023/09/27 08:55:45;;;;;;;10.35;8.10;;;22.80;99.90;;;;;;5104871;28;20137;-73
2023/09/27 08:58:13;;;;;;;14.45;8.60;;;22.40;99.90;;;;;;5109034;28;20039;-74
2023/09/27 09:00:41;;;;;;;12.27;8.75;;;21.80;62.00;;;;;;5109171;28;20098;-73
2023/09/27 09:03:07;;;;;;;12.05;9.55;;;21.50;99.90;;;;;;5106691;28;20393;-73
2023/09/27 09:05:33;;;;;;;13.57;9.38;;;21.50;99.90;;;;;;5110123;28;20111;-73
2023/09/27 09:08:01;;;;;;;10.27;9.27;;;21.70;99.90;;;;;;5098712;28;20032;-73
2023/09/27 09:10:27;;;;;;;11.43;8.30;;;22.50;99.90;;;;;;5096185;28;20385;-73
2023/09/27 09:12:52;;;;;;;9.80;8.40;;;23.40;99.90;;;;;;5095002;28;20036;-73
2023/09/27 09:15:28;;;;;;;10.90;8.00;;;23.90;1.00;;;;;;5106164;28;20031;-73
2023/09/27 09:17:57;;;;;;;13.13;8.60;;;23.80;1.00;;;;;;5108869;28;20513;-73
2023/09/27 09:20:28;;;;;;;12.40;8.32;;;23.70;1.00;;;;;;5098606;28;20031;-74
2023/09/27 09:22:54;;;;;;;10.43;8.25;;;23.70;99.90;;;;;;5098931;28;20436;-74
2023/09/27 09:25:22;;;;;;;9.02;8.23;;;23.70;99.90;;;;;;5106685;28;20030;-73
2023/09/27 09:28:07;;;;;;;10.25;8.25;;;23.60;99.90;;;;;;5098395;28;20387;-73
2023/09/27 09:30:35;;;;;;;13.43;9.20;;;23.00;99.90;;;;;;5099494;28;20036;-73
2023/09/27 09:33:01;;;;;;;12.73;9.65;;;22.80;1.00;;;;;;5102661;28;20389;-73
2023/09/27 09:35:30;;;;;;;11.68;9.73;;;22.40;99.90;;;;;;5108225;28;20032;-73
2023/09/27 09:37:59;;;;;;;14.73;10.10;;;22.30;1.00;;;;;;5108929;28;20401;-73
2023/09/27 09:40:24;;;;;;;14.48;10.43;;;22.30;99.90;;;;;;5112815;28;20036;-73
2023/09/27 09:42:50;;;;;;;14.07;11.30;;;22.20;99.90;;;;;;5115153;28;20028;-73
2023/09/27 09:45:16;;;;;;;16.92;10.88;;;22.80;99.90;;;;;;5115275;28;20354;-73
2023/09/27 09:47:44;;;;;;;11.68;9.45;;;22.70;99.90;;;;;;5113276;27;20123;-73
2023/09/27 09:50:19;;;;;;;13.60;10.30;;;22.80;40.50;;;;;;5112727;28;20023;-74
2023/09/27 09:52:54;;;;;;;14.35;10.50;;;22.80;50.90;;;;;;5116134;27;20034;-74
2023/09/27 09:55:21;;;;;;;11.48;10.27;;;23.10;75.30;;;;;;5114627;28;20110;-74
2023/09/27 09:58:10;;;;;;;11.10;9.88;;;23.20;99.90;;;;;;5114365;28;20112;-74
2023/09/27 10:00:42;;;;;;;15.82;10.52;;;23.70;1.00;;;;;;5115494;28;20535;-73
2023/09/27 10:03:09;;;;;;;17.25;10.18;;;24.10;71.60;;;;;;5115783;28;20020;-74
2023/09/27 10:05:39;;;;;;;12.20;10.20;;;24.50;99.90;;;;;;5114154;27;20045;-74
2023/09/27 10:08:06;;;;;;;11.65;10.13;;;25.10;1.00;;;;;;5115230;28;20035;-73
2023/09/27 10:10:38;;;;;;;12.10;9.65;;;25.50;99.90;;;;;;5103734;28;20078;-73
2023/09/27 10:13:07;;;;;;;13.35;9.80;;;26.10;1.00;;;;;;5110213;28;20501;-74
2023/09/27 10:15:33;;;;;;;15.60;9.30;;;26.30;99.90;;;;;;5114579;28;20443;-73
2023/09/27 10:18:25;;;;;;;9.90;8.88;;;26.50;99.90;;;;;;5114958;28;20426;-77
2023/09/27 10:21:08;;;;;;;12.98;8.65;;;26.90;99.90;;;;;;5111369;28;20026;-73
2023/09/27 10:23:53;;;;;;;;;;;26.40;99.90;;;;;;5114428;28;20032;-73
2023/09/27 10:26:22;;;;;;;11.35;7.85;;;26.10;1.00;;;;;;5113703;28;19914;-73
2023/09/27 10:34:39;;;;;;;7.97;7.18;;;25.80;99.90;;;;;;5109111;27;20680;-73
2023/09/27 10:37:04;;;;;;;9.63;7.82;;;26.20;99.90;;;;;;5104658;28;20375;-73
2023/09/27 10:39:30;;;;;;;8.38;7.55;;;26.00;99.90;;;;;;5107539;28;20043;-73
2023/09/27 10:41:56;;;;;;;10.50;7.43;;;26.30;99.90;;;;;;5105529;28;20031;-73
2023/09/27 10:44:33;;;;;;;9.48;7.13;;;26.50;99.90;;;;;;5109148;28;20035;-73
2023/09/27 10:47:03;;;;;;;9.80;7.32;;;26.50;99.90;;;;;;5100646;28;20044;-72
2023/09/27 10:49:37;;;;;;;7.45;6.70;;;26.80;43.80;;;;;;5104095;28;20183;-72
2023/09/27 10:52:03;;;;;;;10.50;7.72;;;26.70;99.90;;;;;;5106365;28;20039;-72
2023/09/27 10:54:28;;;;;;;12.02;7.93;;;26.90;99.90;;;;;;5105897;28;20028;-72
2023/09/27 10:56:56;;;;;;;10.70;6.72;;;27.00;31.90;;;;;;5107093;28;20088;-73
2023/09/27 10:59:24;;;;;;;9.98;6.13;;;26.80;99.90;;;;;;5107634;28;20077;-73
2023/09/27 11:01:49;;;;;;;12.15;5.82;;;27.50;99.90;;;;;;5104261;28;20585;-76
2023/09/27 11:04:15;;;;;;;8.13;7.13;;;28.50;99.90;;;;;;5108482;28;20120;-72
2023/09/27 11:06:45;;;;;;;6.25;5.65;;;28.50;99.90;;;;;;5108601;28;20045;-73
2023/09/27 11:09:12;;;;;;;10.25;6.55;;;28.40;99.90;;;;;;5105259;28;20024;-72
2023/09/27 11:11:39;;;;;;;9.30;6.97;;;28.30;99.90;;;;;;5110080;28;20032;-72
2023/09/27 11:14:04;;;;;;;8.07;6.85;;;27.60;99.90;;;;;;5107680;28;20084;-72
2023/09/27 11:16:30;;;;;;;9.93;6.93;;;27.30;99.90;;;;;;5107273;28;20476;-72
2023/09/27 11:18:56;;;;;;;7.43;6.63;;;26.40;1.00;;;;;;5108198;28;20040;-72
2023/09/27 11:21:24;;;;;;;7.63;6.72;;;26.50;36.30;;;;;;5106553;28;20031;-73
2023/09/27 11:23:53;;;;;;;8.73;7.05;;;26.30;77.00;;;;;;5107567;28;20040;-73
2023/09/27 11:26:19;;;;;;;9.18;7.32;;;26.10;99.90;;;;;;5107128;28;20437;-72
2023/09/27 11:28:56;;;;;;;7.97;6.88;;;26.00;99.90;;;;;;5107527;28;20032;-72
2023/09/27 11:31:23;;;;;;;10.57;6.05;;;25.60;99.90;;;;;;5103958;28;20404;-73
2023/09/27 11:33:49;;;;;;;8.57;6.15;;;25.60;1.00;;;;;;5107725;28;20043;-72
2023/09/27 11:36:14;;;;;;;9.57;5.88;;;25.70;59.70;;;;;;5107602;28;20533;-72
2023/09/27 11:38:48;;;;;;;6.45;5.57;;;25.80;1.00;;;;;;5110447;28;20127;-73
2023/09/27 11:41:16;;;;;;;8.23;5.53;;;25.70;1.00;;;;;;5106327;28;20527;-72
2023/09/27 11:43:42;;;;;;;5.32;4.60;;;26.00;1.00;;;;;;5105387;28;20118;-72
2023/09/27 11:46:08;;;;;;;8.02;5.63;;;26.20;99.90;;;;;;5092558;28;20036;-73
2023/09/27 11:48:34;;;;;;;8.73;5.60;;;26.30;1.00;;;;;;5094845;28;20055;-74
2023/09/27 11:51:01;;;;;;;8.23;5.05;;;26.40;1.00;;;;;;5094024;28;20035;-72
2023/09/27 11:53:26;;;;;;;7.45;5.70;;;26.10;59.80;;;;;;5092599;28;20036;-73
2023/09/27 11:55:54;;;;;;;7.50;5.53;;;26.00;99.90;;;;;;5091167;28;20035;-72
2023/09/27 11:58:19;;;;;;;7.10;5.57;;;26.10;99.90;;;;;;5095340;28;20085;-73
2023/09/27 12:00:45;;;;;;;10.52;5.50;;;26.10;99.90;;;;;;5095557;28;20389;-72
2023/09/27 12:03:11;;;;;;;8.48;6.03;;;26.10;1.00;;;;;;5094620;28;20032;-72
2023/09/27 12:05:37;;;;;;;6.13;5.53;;;25.70;99.90;;;;;;5092154;28;20031;-72
2023/09/27 12:08:04;;;;;;;9.50;5.63;;;25.60;1.00;;;;;;5096016;28;20390;-72
2023/09/27 12:10:29;;;;;;;9.80;4.88;;;25.50;99.90;;;;;;5095172;28;20465;-73
2023/09/27 12:12:55;;;;;;;7.22;5.35;;;25.30;99.90;;;;;;5092986;28;20020;-72
2023/09/27 12:15:21;;;;;;;8.13;5.95;;;25.20;1.00;;;;;;5094831;28;20122;-73
2023/09/27 12:17:47;;;;;;;8.02;5.18;;;25.00;99.90;;;;;;5093270;28;20024;-72
2023/09/27 12:20:14;;;;;;;6.82;5.28;;;24.90;1.00;;;;;;5090906;28;20028;-72
2023/09/27 12:22:40;;;;;;;5.88;5.10;;;24.80;99.90;;;;;;5093584;28;20039;-73
2023/09/27 12:25:06;;;;;;;7.50;5.20;;;25.00;99.90;;;;;;5087364;28;20073;-73
2023/09/27 12:27:32;;;;;;;9.73;5.72;;;25.30;99.90;;;;;;5089553;28;20028;-73
2023/09/27 12:29:59;;;;;;;7.72;6.00;;;25.30;99.90;;;;;;5089966;28;20217;-72
2023/09/27 12:32:25;;;;;;;7.53;6.05;;;25.50;99.90;;;;;;5089457;28;20032;-72
2023/09/27 12:34:51;;;;;;;6.85;6.10;;;25.50;99.90;;;;;;5085369;28;20497;-72
2023/09/27 12:37:16;;;;;;;7.60;6.20;;;25.40;99.90;;;;;;5091325;28;20101;-73
2023/09/27 12:39:42;;;;;;;6.68;5.40;;;25.30;99.90;;;;;;5090515;28;20064;-73